createdAt,value
2022-12-17T00:00:41.740Z,36.00
2022-12-17T00:03:29.222Z,34.80
2022-12-17T00:06:14.740Z,29.70
2022-12-17T00:08:59.981Z,33.70
2022-12-17T00:11:45.263Z,33.63
2022-12-17T00:14:30.622Z,33.70
2022-12-17T00:17:15.823Z,45.97
2022-12-17T00:20:01.259Z,37.43
2022-12-17T00:22:46.530Z,37.00
2022-12-17T00:25:31.738Z,52.13
2022-12-17T00:28:17.146Z,39.57
2022-12-17T00:31:02.380Z,33.20
2022-12-17T00:33:49.567Z,38.17
2022-12-17T00:36:34.890Z,39.43
2022-12-17T00:39:21.694Z,37.80
2022-12-17T00:42:07.172Z,35.50
2022-12-17T00:44:52.526Z,38.90
2022-12-17T00:47:39.050Z,36.60
2022-12-17T00:50:24.859Z,34.93
2022-12-17T00:53:11.777Z,33.27
2022-12-17T00:55:58.015Z,37.70
2022-12-17T00:58:43.424Z,33.60
2022-12-17T01:01:29.455Z,37.80
2022-12-17T01:04:14.971Z,35.57
2022-12-17T01:07:00.197Z,35.70
2022-12-17T01:09:48.696Z,37.43
2022-12-17T01:12:34.006Z,36.10
2022-12-17T01:15:19.623Z,46.10
2022-12-17T01:18:05.921Z,35.07
2022-12-17T01:20:51.412Z,39.63
2022-12-17T01:23:37.718Z,35.83
2022-12-17T01:26:23.405Z,44.07
2022-12-17T01:29:08.751Z,36.53
2022-12-17T01:31:54.028Z,38.07
2022-12-17T01:34:39.354Z,36.73
2022-12-17T01:37:24.612Z,36.77
2022-12-17T01:40:11.474Z,36.03
2022-12-17T01:43:05.347Z,34.90
2022-12-17T01:46:04.100Z,41.27
2022-12-17T01:48:56.549Z,37.40
2022-12-17T01:51:43.827Z,37.20
2022-12-17T01:54:30.391Z,40.10
2022-12-17T01:57:17.233Z,37.43
2022-12-17T02:00:14.855Z,37.97
2022-12-17T02:03:01.149Z,38.10
2022-12-17T02:06:13.327Z,40.97
2022-12-17T02:09:40.542Z,36.23
2022-12-17T02:12:56.454Z,41.97
2022-12-17T02:16:02.471Z,32.57
2022-12-17T02:18:55.046Z,40.80
2022-12-17T02:21:44.561Z,39.57
2022-12-17T02:24:52.991Z,47.90
2022-12-17T02:27:41.106Z,37.83
2022-12-17T02:30:28.860Z,38.93
2022-12-17T02:33:14.974Z,38.37
2022-12-17T02:36:09.647Z,38.87
2022-12-17T02:38:56.814Z,38.20
2022-12-17T02:41:50.900Z,37.77
2022-12-17T02:44:40.506Z,36.47
2022-12-17T02:47:29.113Z,37.83
2022-12-17T02:50:15.472Z,60.03
2022-12-17T02:53:07.678Z,35.80
2022-12-17T02:55:54.755Z,34.60
2022-12-17T02:58:40.433Z,82.73
2022-12-17T03:01:26.757Z,87.03
2022-12-17T03:04:13.450Z,101.43
2022-12-17T03:06:58.737Z,34.60
2022-12-17T03:09:44.537Z,51.13
2022-12-17T03:12:29.809Z,53.40
2022-12-17T03:15:15.348Z,59.97
2022-12-17T03:18:00.810Z,39.60
2022-12-17T03:20:46.101Z,36.63
2022-12-17T03:23:31.528Z,32.47
2022-12-17T03:26:19.447Z,36.70
2022-12-17T03:29:05.679Z,34.90
2022-12-17T03:31:51.701Z,35.03
2022-12-17T03:34:37.019Z,29.93
2022-12-17T03:37:24.215Z,35.17
2022-12-17T03:40:09.712Z,34.97
2022-12-17T03:42:55.154Z,33.63
2022-12-17T03:45:40.232Z,33.20
2022-12-17T03:48:27.726Z,31.60
2022-12-17T03:51:13.680Z,30.43
2022-12-17T03:53:59.452Z,32.33
2022-12-17T03:56:45.775Z,34.90
2022-12-17T03:59:31.314Z,34.23
2022-12-17T04:02:17.324Z,34.23
2022-12-17T04:05:02.684Z,36.87
2022-12-17T04:07:48.183Z,34.97
2022-12-17T04:10:33.829Z,32.37
2022-12-17T04:13:19.215Z,29.03
2022-12-17T04:16:04.488Z,29.03
2022-12-17T04:18:49.741Z,32.43
2022-12-17T04:21:35.244Z,29.80
2022-12-17T04:24:20.498Z,25.40
2022-12-17T04:27:06.323Z,26.60
2022-12-17T04:30:05.541Z,24.83
2022-12-17T04:32:50.851Z,26.67
2022-12-17T04:35:36.456Z,21.77
2022-12-17T04:38:21.856Z,25.87
2022-12-17T04:41:07.631Z,24.80
2022-12-17T04:43:55.020Z,30.17
2022-12-17T04:46:42.207Z,30.73
2022-12-17T04:49:29.278Z,31.23
2022-12-17T04:52:14.514Z,32.03
2022-12-17T04:55:00.196Z,26.23
2022-12-17T04:57:45.521Z,27.47
2022-12-17T05:00:31.614Z,26.97
2022-12-17T05:03:29.138Z,24.70
2022-12-17T05:06:14.332Z,24.50
2022-12-17T05:09:00.438Z,27.43
2022-12-17T05:11:45.716Z,27.40
2022-12-17T05:14:34.554Z,27.63
2022-12-17T05:17:20.015Z,31.07
2022-12-17T05:20:05.558Z,30.50
2022-12-17T05:22:50.881Z,33.03
2022-12-17T05:25:36.318Z,33.93
2022-12-17T05:28:21.674Z,37.27
2022-12-17T05:31:12.350Z,35.30
2022-12-17T05:33:58.256Z,35.60
2022-12-17T05:36:43.986Z,38.33
2022-12-17T05:39:29.924Z,33.60
2022-12-17T05:42:15.569Z,34.77
2022-12-17T05:45:00.972Z,33.57
2022-12-17T05:47:46.386Z,35.67
2022-12-17T05:50:31.900Z,33.73
2022-12-17T05:53:24.475Z,33.27
2022-12-17T05:56:10.983Z,34.40
2022-12-17T05:58:57.394Z,34.83
2022-12-17T06:01:42.689Z,34.67
2022-12-17T06:04:29.025Z,31.77
2022-12-17T06:07:14.586Z,43.93
2022-12-17T06:09:59.945Z,52.87
2022-12-17T06:12:45.208Z,39.83
2022-12-17T06:15:30.786Z,34.00
2022-12-17T06:18:17.108Z,37.07
2022-12-17T06:21:03.358Z,40.13
2022-12-17T06:23:48.812Z,49.77
2022-12-17T06:26:34.113Z,50.70
2022-12-17T06:29:19.853Z,62.20
2022-12-17T06:32:05.137Z,63.33
2022-12-17T06:34:50.476Z,42.90
2022-12-17T06:37:35.838Z,40.60
2022-12-17T06:40:21.311Z,35.77
2022-12-17T06:43:14.517Z,35.70
2022-12-17T06:46:00.303Z,34.83
2022-12-17T06:48:45.648Z,35.97
2022-12-17T06:51:30.940Z,31.03
2022-12-17T06:54:16.234Z,31.37
2022-12-17T06:57:01.573Z,34.43
2022-12-17T06:59:47.120Z,35.13
2022-12-17T07:02:32.650Z,37.00
2022-12-17T07:05:18.029Z,36.70
2022-12-17T07:08:03.588Z,34.97
2022-12-17T07:10:48.976Z,35.93
2022-12-17T07:13:34.448Z,38.90
2022-12-17T07:16:20.188Z,44.00
2022-12-17T07:19:05.761Z,50.57
2022-12-17T07:21:50.994Z,54.83
2022-12-17T07:24:36.278Z,51.07
2022-12-17T07:27:21.771Z,39.83
2022-12-17T07:30:07.229Z,32.17
2022-12-17T07:33:03.054Z,32.13
2022-12-17T07:35:48.654Z,29.90
2022-12-17T07:38:33.896Z,29.47
2022-12-17T07:41:19.514Z,29.20
2022-12-17T07:44:05.038Z,28.83
2022-12-17T07:46:50.690Z,28.40
2022-12-17T07:49:35.943Z,29.07
2022-12-17T07:52:21.231Z,29.57
2022-12-17T07:55:06.593Z,29.27
2022-12-17T07:57:51.893Z,29.27
2022-12-17T08:00:37.390Z,29.47
2022-12-17T08:03:23.167Z,28.07
2022-12-17T08:06:08.377Z,30.80
2022-12-17T08:08:53.896Z,31.43
2022-12-17T08:11:40.096Z,36.70
2022-12-17T08:14:25.437Z,37.23
2022-12-17T08:17:10.784Z,33.73
2022-12-17T08:19:55.994Z,40.83
2022-12-17T08:22:41.340Z,39.97
2022-12-17T08:25:27.148Z,38.13
2022-12-17T08:28:50.037Z,35.23
2022-12-17T08:31:25.078Z,35.37
2022-12-17T08:34:10.537Z,36.97
2022-12-17T08:36:55.659Z,37.40
2022-12-17T08:39:41.012Z,36.83
2022-12-17T08:42:26.218Z,34.50
2022-12-17T08:45:11.628Z,37.80
2022-12-17T08:48:02.089Z,37.67
2022-12-17T08:50:49.367Z,36.27
2022-12-17T08:53:35.240Z,33.67
2022-12-17T08:56:21.216Z,33.03
2022-12-17T08:59:06.848Z,36.53
2022-12-17T09:01:52.303Z,33.43
2022-12-17T09:04:37.941Z,31.93
2022-12-17T09:07:23.152Z,32.03
2022-12-17T09:10:08.494Z,32.20
2022-12-17T09:12:53.802Z,32.47
2022-12-17T09:15:39.215Z,33.00
2022-12-17T09:18:24.630Z,30.90
2022-12-17T09:21:12.224Z,28.80
2022-12-17T09:23:57.578Z,33.27
2022-12-17T09:26:43.277Z,34.03
2022-12-17T09:29:28.956Z,25.17
2022-12-17T09:32:14.531Z,28.40
2022-12-17T09:34:59.776Z,27.13
2022-12-17T09:37:45.181Z,29.93
2022-12-17T09:40:36.924Z,31.43
2022-12-17T09:43:34.673Z,30.00
2022-12-17T09:47:01.581Z,36.10
2022-12-17T09:49:48.033Z,34.33
2022-12-17T09:52:47.573Z,36.37
2022-12-17T09:55:35.083Z,30.80
2022-12-17T09:58:22.344Z,29.93
2022-12-17T10:01:08.585Z,30.00
2022-12-17T10:03:55.036Z,35.13
2022-12-17T10:06:45.997Z,34.30
2022-12-17T10:09:47.622Z,35.33
2022-12-17T10:12:35.137Z,33.17
2022-12-17T10:19:51.095Z,31.40
2022-12-17T10:22:39.507Z,33.93
2022-12-17T10:25:35.027Z,34.70
2022-12-17T10:28:25.916Z,35.37
2022-12-17T10:31:11.494Z,34.47
2022-12-17T10:33:59.198Z,35.07
2022-12-17T10:36:46.497Z,37.67
2022-12-17T10:39:52.247Z,36.77
2022-12-17T10:42:42.459Z,36.27
2022-12-17T10:45:54.470Z,44.13
2022-12-17T10:48:48.913Z,50.27
2022-12-17T10:51:49.888Z,36.17
2022-12-17T10:54:53.259Z,36.97
2022-12-17T10:57:57.649Z,38.37
2022-12-17T11:00:50.439Z,36.73
2022-12-17T11:03:43.343Z,39.23
2022-12-17T11:06:31.885Z,42.20
2022-12-17T11:09:19.601Z,40.20
2022-12-17T11:12:07.578Z,38.13
2022-12-17T11:15:03.896Z,43.80
2022-12-17T11:17:49.337Z,39.93
2022-12-17T11:20:58.330Z,40.80
2022-12-17T11:23:44.148Z,42.87
2022-12-17T11:26:33.506Z,45.00
2022-12-17T11:29:19.208Z,40.27
2022-12-17T11:32:07.581Z,41.50
2022-12-17T11:35:17.970Z,41.33
2022-12-17T11:38:29.369Z,40.77
2022-12-17T11:42:02.672Z,45.00
2022-12-17T11:45:01.644Z,40.60
2022-12-17T11:48:09.209Z,40.70
2022-12-17T11:51:11.903Z,43.20
2022-12-17T11:54:14.082Z,42.67
2022-12-17T11:57:29.537Z,40.63
2022-12-17T12:00:22.952Z,41.87
2022-12-17T12:03:39.681Z,39.50
2022-12-17T12:06:36.480Z,40.00
2022-12-17T12:09:41.430Z,49.40
2022-12-17T12:13:05.865Z,42.37
2022-12-17T12:16:15.280Z,46.83
2022-12-17T12:19:18.820Z,45.00
2022-12-17T12:22:44.062Z,45.13
2022-12-17T12:25:59.055Z,50.37
2022-12-17T12:28:51.275Z,51.70
2022-12-17T12:32:05.651Z,46.83
2022-12-17T12:34:55.033Z,50.60
2022-12-17T12:37:41.024Z,45.27
2022-12-17T12:41:07.490Z,46.67
2022-12-17T12:43:56.174Z,45.97
2022-12-17T12:47:05.669Z,50.97
2022-12-17T12:50:01.618Z,53.47
2022-12-17T12:52:47.465Z,51.27
2022-12-17T12:55:32.761Z,56.30
2022-12-17T12:58:23.618Z,55.23
2022-12-17T13:01:08.929Z,56.30
2022-12-17T13:03:56.694Z,54.33
2022-12-17T13:06:54.580Z,59.23
2022-12-17T13:09:34.540Z,54.53
2022-12-17T13:12:04.770Z,57.43
2022-12-17T13:14:56.578Z,60.00
2022-12-17T13:17:56.417Z,54.47
2022-12-17T13:20:33.783Z,53.07
2022-12-17T13:23:18.431Z,51.33
2022-12-17T13:25:45.348Z,56.00
2022-12-17T13:28:31.216Z,55.70
2022-12-17T13:31:05.345Z,52.97
2022-12-17T13:33:48.633Z,53.63
2022-12-17T13:36:37.444Z,48.67
2022-12-17T13:39:08.180Z,50.73
2022-12-17T13:41:36.298Z,48.17
2022-12-17T13:44:17.548Z,50.73
2022-12-17T13:46:47.967Z,47.80
2022-12-17T13:49:24.423Z,69.67
2022-12-17T13:52:19.411Z,81.37
2022-12-17T13:54:46.610Z,55.53
2022-12-17T13:57:25.097Z,59.50
2022-12-17T13:59:56.915Z,96.03
2022-12-17T14:02:32.300Z,76.13
2022-12-17T14:05:07.388Z,65.93
2022-12-17T14:07:38.821Z,60.63
2022-12-17T14:10:14.774Z,60.37
2022-12-17T14:12:41.729Z,53.43
2022-12-17T14:15:28.220Z,58.30
2022-12-17T14:17:56.507Z,67.07
2022-12-17T14:20:27.102Z,60.13
2022-12-17T14:22:59.386Z,49.67
2022-12-17T14:25:38.177Z,49.53
2022-12-17T14:28:29.656Z,48.00
2022-12-17T14:31:31.977Z,38.10
2022-12-17T14:34:07.946Z,34.33
2022-12-17T14:36:43.524Z,30.87
2022-12-17T14:39:28.830Z,30.27
2022-12-17T14:42:16.724Z,32.47
2022-12-17T14:44:59.154Z,30.63
2022-12-17T14:47:31.363Z,31.10
2022-12-17T14:50:13.170Z,32.70
2022-12-17T14:52:43.972Z,32.47
2022-12-17T14:55:35.003Z,32.87
2022-12-17T14:58:13.998Z,30.87
2022-12-17T15:00:44.489Z,30.63
2022-12-17T15:03:22.410Z,29.07
2022-12-17T15:05:53.536Z,28.37
2022-12-17T15:08:20.937Z,34.27
2022-12-17T15:10:47.808Z,29.30
2022-12-17T15:13:14.577Z,34.97
2022-12-17T15:15:41.517Z,31.47
2022-12-17T15:18:09.074Z,31.27
2022-12-17T15:20:36.406Z,29.63
2022-12-17T15:23:03.243Z,70.03
2022-12-17T15:25:30.658Z,40.87
2022-12-17T15:27:57.547Z,31.90
2022-12-17T15:30:24.327Z,35.33
2022-12-17T15:32:51.037Z,33.40
2022-12-17T15:35:17.858Z,34.17
2022-12-17T15:37:44.610Z,30.90
2022-12-17T15:40:11.977Z,37.37
2022-12-17T15:43:02.900Z,40.20
2022-12-17T15:46:00.232Z,42.00
2022-12-17T15:48:27.034Z,39.93
2022-12-17T15:50:53.756Z,39.27
2022-12-17T15:53:20.505Z,37.93
2022-12-17T15:55:47.248Z,36.33
2022-12-17T15:58:14.073Z,36.53
2022-12-17T16:00:40.916Z,40.00
2022-12-17T16:03:07.859Z,39.10
2022-12-17T16:05:34.817Z,40.57
2022-12-17T16:08:02.511Z,43.80
2022-12-17T16:10:29.944Z,47.30
2022-12-17T16:12:57.544Z,42.17
2022-12-17T16:15:24.503Z,42.80
2022-12-17T16:17:51.305Z,50.73
2022-12-17T16:20:18.025Z,39.80
2022-12-17T16:22:44.833Z,38.50
2022-12-17T16:25:12.080Z,41.03
2022-12-17T16:27:38.872Z,41.67
2022-12-17T16:30:06.290Z,40.73
2022-12-17T16:32:36.638Z,40.07
2022-12-17T16:35:04.916Z,37.27
2022-12-17T16:37:31.850Z,36.90
2022-12-17T16:40:00.445Z,39.00
2022-12-17T16:42:27.747Z,33.17
2022-12-17T16:44:54.495Z,37.37
2022-12-17T16:47:21.283Z,35.67
2022-12-17T16:49:50.831Z,34.50
2022-12-17T16:52:17.674Z,37.03
2022-12-17T16:54:44.461Z,34.47
2022-12-17T16:57:11.349Z,35.37
2022-12-17T16:59:38.143Z,35.93
2022-12-17T17:02:05.492Z,34.07
2022-12-17T17:04:32.407Z,30.27
2022-12-17T17:06:59.164Z,33.10
2022-12-17T17:09:26.264Z,31.10
2022-12-17T17:11:56.932Z,31.23
2022-12-17T17:14:24.070Z,31.37
2022-12-17T17:16:51.149Z,30.93
2022-12-17T17:19:18.563Z,33.47
2022-12-17T17:21:54.499Z,35.00
2022-12-17T17:24:24.077Z,32.97
2022-12-17T17:26:52.526Z,37.90
2022-12-17T17:29:19.464Z,36.20
2022-12-17T17:32:09.204Z,38.53
2022-12-17T17:34:33.685Z,37.40
2022-12-17T17:37:00.489Z,35.77
2022-12-17T17:39:27.482Z,38.60
2022-12-17T17:41:54.410Z,36.20
2022-12-17T17:44:21.323Z,36.27
2022-12-17T17:46:48.139Z,38.53
2022-12-17T17:49:15.307Z,38.33
2022-12-17T17:54:30.536Z,36.13
2022-12-17T17:56:57.435Z,36.47
2022-12-17T17:59:31.120Z,38.53
2022-12-17T18:01:59.939Z,35.67
2022-12-17T18:04:26.836Z,35.57
2022-12-17T18:07:23.755Z,33.97
2022-12-17T18:09:40.346Z,33.63
2022-12-17T18:12:25.910Z,36.57
2022-12-17T18:15:13.098Z,31.43
2022-12-17T18:17:39.769Z,32.27
2022-12-17T18:20:07.008Z,30.70
2022-12-17T18:22:33.745Z,32.43
2022-12-17T18:25:00.616Z,29.87
2022-12-17T18:27:27.373Z,29.33
2022-12-17T18:29:54.143Z,31.30
2022-12-17T18:32:20.959Z,30.97
2022-12-17T18:34:47.875Z,30.77
2022-12-17T18:37:14.695Z,30.33
2022-12-17T18:39:41.479Z,29.87
2022-12-17T18:42:28.009Z,34.23
2022-12-17T18:44:54.792Z,31.83
2022-12-17T18:47:21.699Z,30.47
2022-12-17T18:49:50.187Z,27.83
2022-12-17T18:52:17.589Z,33.07
2022-12-17T18:54:45.325Z,30.70
2022-12-17T18:57:12.181Z,33.20
2022-12-17T18:59:40.876Z,30.90
2022-12-17T19:02:15.671Z,31.57
2022-12-17T19:04:42.879Z,28.63
2022-12-17T19:07:09.845Z,31.30
2022-12-17T19:09:36.876Z,28.63
2022-12-17T19:12:08.967Z,28.33
2022-12-17T19:14:36.539Z,30.63
2022-12-17T19:17:05.805Z,30.47
2022-12-17T19:19:32.913Z,30.63
2022-12-17T19:22:00.323Z,30.83
2022-12-17T19:24:27.271Z,30.57
2022-12-17T19:26:54.237Z,31.10
2022-12-17T19:29:21.631Z,29.40
2022-12-17T19:31:48.950Z,30.37
2022-12-17T19:34:17.369Z,29.70
2022-12-17T19:36:44.996Z,26.27
2022-12-17T19:39:16.461Z,27.13
2022-12-17T19:41:43.563Z,29.37
2022-12-17T19:44:15.493Z,27.20
2022-12-17T19:46:42.272Z,28.50
2022-12-17T19:49:12.145Z,33.60
2022-12-17T19:51:41.156Z,28.53
2022-12-17T19:54:09.118Z,30.93
2022-12-17T19:56:36.721Z,30.33
2022-12-17T19:59:07.317Z,32.07
2022-12-17T20:01:37.164Z,31.00
2022-12-17T20:04:05.363Z,34.67
2022-12-17T20:06:33.666Z,36.63
2022-12-17T20:09:01.436Z,32.93
2022-12-17T20:11:35.046Z,35.17
2022-12-17T20:14:08.193Z,35.97
2022-12-17T20:16:39.017Z,39.07
2022-12-17T20:19:08.063Z,38.03
2022-12-17T20:21:34.850Z,40.37
2022-12-17T20:24:01.752Z,38.00
2022-12-17T20:26:28.526Z,43.37
2022-12-17T20:28:56.068Z,41.43
2022-12-17T20:31:22.956Z,41.57
2022-12-17T20:33:49.811Z,44.40
2022-12-17T20:36:22.015Z,38.40
2022-12-17T20:38:49.116Z,43.67
2022-12-17T20:41:21.589Z,43.20
2022-12-17T20:43:49.602Z,45.07
2022-12-17T20:46:17.923Z,44.17
2022-12-17T20:48:45.494Z,44.37
2022-12-17T20:51:15.518Z,43.80
2022-12-17T20:53:42.792Z,41.80
2022-12-17T20:56:13.223Z,37.97
2022-12-17T20:58:41.332Z,40.50
2022-12-17T21:01:11.592Z,42.07
2022-12-17T21:03:39.295Z,42.10
2022-12-17T21:06:15.319Z,42.20
2022-12-17T21:08:49.379Z,39.53
2022-12-17T21:11:22.272Z,40.30
2022-12-17T21:13:49.088Z,39.50
2022-12-17T21:16:25.786Z,42.57
2022-12-17T21:18:53.162Z,43.87
2022-12-17T21:21:22.599Z,46.50
2022-12-17T21:23:50.415Z,43.27
2022-12-17T21:26:27.608Z,43.67
2022-12-17T21:28:56.570Z,39.87
2022-12-17T21:31:31.352Z,39.43
2022-12-17T21:34:01.495Z,41.67
2022-12-17T21:36:30.411Z,43.87
2022-12-17T21:38:58.850Z,44.70
2022-12-17T21:41:28.493Z,45.77
2022-12-17T21:43:57.041Z,47.23
2022-12-17T21:46:27.040Z,41.17
2022-12-17T21:48:55.775Z,40.53
2022-12-17T21:51:23.541Z,39.57
2022-12-17T21:53:58.716Z,40.33
2022-12-17T21:56:26.345Z,44.70
2022-12-17T21:59:01.053Z,49.23
2022-12-17T22:01:32.633Z,45.53
2022-12-17T22:04:01.797Z,43.33
2022-12-17T22:06:34.059Z,45.33
2022-12-17T22:09:13.162Z,47.20
2022-12-17T22:11:49.561Z,40.60
2022-12-17T22:14:20.902Z,45.77
2022-12-17T22:16:49.689Z,47.47
2022-12-17T22:19:20.912Z,42.93
2022-12-17T22:21:55.418Z,42.50
2022-12-17T22:24:25.546Z,44.47
2022-12-17T22:27:00.006Z,46.33
2022-12-17T22:29:46.495Z,41.23
2022-12-17T22:32:31.634Z,41.40
2022-12-17T22:36:26.869Z,44.90
2022-12-17T22:40:49.370Z,43.57
2022-12-17T22:44:17.695Z,45.77
2022-12-17T22:44:42.468Z,43.10
2022-12-17T22:46:16.994Z,44.33
2022-12-17T22:48:43.986Z,44.63
2022-12-17T22:51:11.516Z,37.17
2022-12-17T22:53:42.879Z,37.73
2022-12-17T22:56:18.596Z,44.20
2022-12-17T22:58:57.808Z,40.60
2022-12-17T23:01:24.732Z,36.33
2022-12-17T23:03:55.708Z,33.60
2022-12-17T23:06:22.798Z,33.17
2022-12-17T23:08:50.188Z,40.40
2022-12-17T23:11:23.289Z,38.60
2022-12-17T23:13:51.097Z,42.63
2022-12-17T23:16:18.303Z,41.33
2022-12-17T23:18:49.579Z,40.80
2022-12-17T23:21:22.195Z,42.80
2022-12-17T23:23:49.001Z,41.87
2022-12-17T23:26:20.504Z,38.87
2022-12-17T23:28:47.381Z,35.40
2022-12-17T23:31:19.793Z,44.37
2022-12-17T23:33:47.390Z,40.40
2022-12-17T23:36:17.624Z,44.40
2022-12-17T23:38:45.445Z,43.00
2022-12-17T23:41:17.237Z,48.53
2022-12-17T23:43:45.046Z,45.40
2022-12-17T23:46:12.432Z,40.30
2022-12-17T23:48:45.304Z,46.00
2022-12-17T23:51:18.484Z,48.07
2022-12-17T23:53:45.350Z,40.50
2022-12-17T23:56:15.293Z,44.23
2022-12-17T23:58:43.816Z,44.30
